sensor_id;sensor_type;location;lat;lon;timestamp;P1;durP1;ratioP1;P2;durP2;ratioP2
22240;SDS011;11289;52.524;13.694;2023-04-24T00:00:16;5.80;;;4.80;;
22240;SDS011;11289;52.524;13.694;2023-04-24T00:02:43;5.05;;;4.55;;
22240;SDS011;11289;52.524;13.694;2023-04-24T00:05:13;5.80;;;5.03;;
22240;SDS011;11289;52.524;13.694;2023-04-24T00:07:40;6.55;;;4.75;;
22240;SDS011;11289;52.524;13.694;2023-04-24T00:10:08;6.65;;;5.22;;
22240;SDS011;11289;52.524;13.694;2023-04-24T00:12:34;7.50;;;4.78;;
22240;SDS011;11289;52.524;13.694;2023-04-24T00:15:01;6.63;;;5.05;;
22240;SDS011;11289;52.524;13.694;2023-04-24T00:17:27;6.80;;;4.70;;
22240;SDS011;11289;52.524;13.694;2023-04-24T00:19:53;6.10;;;5.35;;
22240;SDS011;11289;52.524;13.694;2023-04-24T00:22:27;5.53;;;4.68;;
22240;SDS011;11289;52.524;13.694;2023-04-24T00:24:53;5.57;;;4.20;;
22240;SDS011;11289;52.524;13.694;2023-04-24T00:27:20;5.40;;;4.47;;
22240;SDS011;11289;52.524;13.694;2023-04-24T00:29:46;6.63;;;4.85;;
22240;SDS011;11289;52.524;13.694;2023-04-24T00:32:12;5.63;;;4.68;;
22240;SDS011;11289;52.524;13.694;2023-04-24T00:34:39;5.47;;;4.82;;
22240;SDS011;11289;52.524;13.694;2023-04-24T00:37:05;5.80;;;4.85;;
22240;SDS011;11289;52.524;13.694;2023-04-24T00:39:32;8.40;;;5.05;;
22240;SDS011;11289;52.524;13.694;2023-04-24T00:41:58;6.47;;;5.07;;
22240;SDS011;11289;52.524;13.694;2023-04-24T00:44:24;6.40;;;5.40;;
22240;SDS011;11289;52.524;13.694;2023-04-24T00:46:50;5.53;;;5.00;;
22240;SDS011;11289;52.524;13.694;2023-04-24T00:49:23;6.63;;;5.55;;
22240;SDS011;11289;52.524;13.694;2023-04-24T00:51:49;5.35;;;4.28;;
22240;SDS011;11289;52.524;13.694;2023-04-24T00:54:17;5.93;;;4.68;;
22240;SDS011;11289;52.524;13.694;2023-04-24T00:56:44;5.43;;;4.60;;
22240;SDS011;11289;52.524;13.694;2023-04-24T00:59:11;5.43;;;4.45;;
22240;SDS011;11289;52.524;13.694;2023-04-24T01:01:38;7.35;;;4.75;;
22240;SDS011;11289;52.524;13.694;2023-04-24T01:04:07;7.00;;;4.28;;
22240;SDS011;11289;52.524;13.694;2023-04-24T01:06:40;7.78;;;4.68;;
22240;SDS011;11289;52.524;13.694;2023-04-24T01:09:08;9.93;;;5.20;;
22240;SDS011;11289;52.524;13.694;2023-04-24T01:11:36;7.30;;;4.53;;
22240;SDS011;11289;52.524;13.694;2023-04-24T01:14:02;8.30;;;5.68;;
22240;SDS011;11289;52.524;13.694;2023-04-24T01:16:29;7.18;;;5.90;;
22240;SDS011;11289;52.524;13.694;2023-04-24T01:18:55;8.90;;;6.65;;
22240;SDS011;11289;52.524;13.694;2023-04-24T01:21:21;7.85;;;5.80;;
22240;SDS011;11289;52.524;13.694;2023-04-24T01:23:49;6.90;;;6.15;;
22240;SDS011;11289;52.524;13.694;2023-04-24T01:26:16;8.30;;;6.95;;
22240;SDS011;11289;52.524;13.694;2023-04-24T01:28:45;7.07;;;6.07;;
22240;SDS011;11289;52.524;13.694;2023-04-24T01:31:12;8.40;;;5.88;;
22240;SDS011;11289;52.524;13.694;2023-04-24T01:33:38;8.57;;;6.45;;
22240;SDS011;11289;52.524;13.694;2023-04-24T01:36:06;9.35;;;6.90;;
22240;SDS011;11289;52.524;13.694;2023-04-24T01:38:33;9.30;;;6.50;;
22240;SDS011;11289;52.524;13.694;2023-04-24T01:40:59;8.93;;;7.43;;
22240;SDS011;11289;52.524;13.694;2023-04-24T01:43:25;9.80;;;7.25;;
22240;SDS011;11289;52.524;13.694;2023-04-24T01:45:52;11.38;;;7.45;;
22240;SDS011;11289;52.524;13.694;2023-04-24T01:48:18;11.57;;;7.50;;
22240;SDS011;11289;52.524;13.694;2023-04-24T01:50:44;8.68;;;7.03;;
22240;SDS011;11289;52.524;13.694;2023-04-24T01:53:10;9.25;;;6.30;;
22240;SDS011;11289;52.524;13.694;2023-04-24T01:55:37;7.57;;;6.28;;
22240;SDS011;11289;52.524;13.694;2023-04-24T01:58:03;7.97;;;6.45;;
22240;SDS011;11289;52.524;13.694;2023-04-24T02:00:29;7.32;;;6.57;;
22240;SDS011;11289;52.524;13.694;2023-04-24T02:02:55;8.02;;;6.63;;
22240;SDS011;11289;52.524;13.694;2023-04-24T02:05:21;7.68;;;6.88;;
22240;SDS011;11289;52.524;13.694;2023-04-24T02:07:47;6.75;;;6.05;;
22240;SDS011;11289;52.524;13.694;2023-04-24T02:10:13;8.50;;;7.30;;
22240;SDS011;11289;52.524;13.694;2023-04-24T02:12:39;7.55;;;6.03;;
22240;SDS011;11289;52.524;13.694;2023-04-24T02:15:05;9.82;;;6.93;;
22240;SDS011;11289;52.524;13.694;2023-04-24T02:17:31;8.90;;;6.35;;
22240;SDS011;11289;52.524;13.694;2023-04-24T02:19:57;7.63;;;6.68;;
22240;SDS011;11289;52.524;13.694;2023-04-24T02:22:24;6.13;;;5.30;;
22240;SDS011;11289;52.524;13.694;2023-04-24T02:24:50;6.43;;;5.45;;
22240;SDS011;11289;52.524;13.694;2023-04-24T02:27:16;7.78;;;6.05;;
22240;SDS011;11289;52.524;13.694;2023-04-24T02:29:42;6.90;;;6.20;;
22240;SDS011;11289;52.524;13.694;2023-04-24T02:32:08;8.25;;;6.55;;
22240;SDS011;11289;52.524;13.694;2023-04-24T02:34:38;7.90;;;5.90;;
22240;SDS011;11289;52.524;13.694;2023-04-24T02:37:04;8.95;;;6.43;;
22240;SDS011;11289;52.524;13.694;2023-04-24T02:39:31;6.55;;;5.78;;
22240;SDS011;11289;52.524;13.694;2023-04-24T02:41:57;7.30;;;5.85;;
22240;SDS011;11289;52.524;13.694;2023-04-24T02:44:23;8.73;;;6.22;;
22240;SDS011;11289;52.524;13.694;2023-04-24T02:46:49;7.93;;;6.05;;
22240;SDS011;11289;52.524;13.694;2023-04-24T02:49:15;7.75;;;5.90;;
22240;SDS011;11289;52.524;13.694;2023-04-24T02:51:41;9.48;;;6.18;;
22240;SDS011;11289;52.524;13.694;2023-04-24T02:54:08;6.80;;;6.00;;
22240;SDS011;11289;52.524;13.694;2023-04-24T02:56:36;6.93;;;6.18;;
22240;SDS011;11289;52.524;13.694;2023-04-24T02:59:02;7.20;;;6.47;;
22240;SDS011;11289;52.524;13.694;2023-04-24T03:01:28;7.63;;;6.10;;
22240;SDS011;11289;52.524;13.694;2023-04-24T03:03:54;8.45;;;6.20;;
22240;SDS011;11289;52.524;13.694;2023-04-24T03:06:24;8.30;;;6.93;;
22240;SDS011;11289;52.524;13.694;2023-04-24T03:08:52;10.73;;;5.90;;
22240;SDS011;11289;52.524;13.694;2023-04-24T03:11:22;7.47;;;6.35;;
22240;SDS011;11289;52.524;13.694;2023-04-24T03:13:48;7.50;;;6.13;;
22240;SDS011;11289;52.524;13.694;2023-04-24T03:16:14;7.45;;;6.07;;
22240;SDS011;11289;52.524;13.694;2023-04-24T03:18:40;7.22;;;6.43;;
22240;SDS011;11289;52.524;13.694;2023-04-24T03:21:06;7.32;;;6.63;;
22240;SDS011;11289;52.524;13.694;2023-04-24T03:23:32;6.50;;;5.65;;
22240;SDS011;11289;52.524;13.694;2023-04-24T03:25:58;7.30;;;5.85;;
22240;SDS011;11289;52.524;13.694;2023-04-24T03:28:24;6.95;;;5.82;;
22240;SDS011;11289;52.524;13.694;2023-04-24T03:30:50;7.32;;;6.28;;
22240;SDS011;11289;52.524;13.694;2023-04-24T03:33:16;6.43;;;5.75;;
22240;SDS011;11289;52.524;13.694;2023-04-24T03:35:42;7.25;;;5.78;;
22240;SDS011;11289;52.524;13.694;2023-04-24T03:38:08;7.45;;;6.72;;
22240;SDS011;11289;52.524;13.694;2023-04-24T03:40:34;7.45;;;5.90;;
22240;SDS011;11289;52.524;13.694;2023-04-24T03:43:01;6.30;;;5.68;;
22240;SDS011;11289;52.524;13.694;2023-04-24T03:45:27;7.32;;;6.57;;
22240;SDS011;11289;52.524;13.694;2023-04-24T03:47:53;6.45;;;5.85;;
22240;SDS011;11289;52.524;13.694;2023-04-24T03:50:19;8.60;;;6.30;;
22240;SDS011;11289;52.524;13.694;2023-04-24T03:52:45;8.95;;;6.68;;
22240;SDS011;11289;52.524;13.694;2023-04-24T03:55:11;7.50;;;6.22;;
22240;SDS011;11289;52.524;13.694;2023-04-24T03:57:40;9.32;;;6.80;;
22240;SDS011;11289;52.524;13.694;2023-04-24T04:00:06;6.93;;;6.22;;
22240;SDS011;11289;52.524;13.694;2023-04-24T04:02:32;7.05;;;6.35;;
22240;SDS011;11289;52.524;13.694;2023-04-24T04:04:58;6.63;;;5.93;;
22240;SDS011;11289;52.524;13.694;2023-04-24T04:07:24;7.47;;;6.35;;
22240;SDS011;11289;52.524;13.694;2023-04-24T04:09:51;8.02;;;6.57;;
22240;SDS011;11289;52.524;13.694;2023-04-24T04:12:17;8.85;;;6.45;;
22240;SDS011;11289;52.524;13.694;2023-04-24T04:14:43;9.18;;;6.38;;
22240;SDS011;11289;52.524;13.694;2023-04-24T04:17:09;11.98;;;6.95;;
22240;SDS011;11289;52.524;13.694;2023-04-24T04:19:34;6.57;;;5.70;;
22240;SDS011;11289;52.524;13.694;2023-04-24T04:22:01;9.02;;;6.25;;
22240;SDS011;11289;52.524;13.694;2023-04-24T04:24:26;7.43;;;6.13;;
22240;SDS011;11289;52.524;13.694;2023-04-24T04:26:54;7.35;;;6.05;;
22240;SDS011;11289;52.524;13.694;2023-04-24T04:29:23;8.50;;;6.25;;
22240;SDS011;11289;52.524;13.694;2023-04-24T04:31:49;8.43;;;6.93;;
22240;SDS011;11289;52.524;13.694;2023-04-24T04:34:15;9.10;;;7.53;;
22240;SDS011;11289;52.524;13.694;2023-04-24T04:36:41;8.63;;;7.20;;
22240;SDS011;11289;52.524;13.694;2023-04-24T04:39:08;8.05;;;6.65;;
22240;SDS011;11289;52.524;13.694;2023-04-24T04:41:34;7.45;;;6.72;;
22240;SDS011;11289;52.524;13.694;2023-04-24T04:44:01;7.40;;;6.70;;
22240;SDS011;11289;52.524;13.694;2023-04-24T04:46:27;7.90;;;6.95;;
22240;SDS011;11289;52.524;13.694;2023-04-24T04:48:53;11.15;;;7.13;;
22240;SDS011;11289;52.524;13.694;2023-04-24T04:51:20;9.60;;;7.47;;
22240;SDS011;11289;52.524;13.694;2023-04-24T04:53:46;9.88;;;7.25;;
22240;SDS011;11289;52.524;13.694;2023-04-24T04:56:12;8.57;;;7.18;;
22240;SDS011;11289;52.524;13.694;2023-04-24T04:58:38;10.13;;;6.97;;
22240;SDS011;11289;52.524;13.694;2023-04-24T05:01:04;7.53;;;6.65;;
22240;SDS011;11289;52.524;13.694;2023-04-24T05:03:30;8.00;;;7.15;;
22240;SDS011;11289;52.524;13.694;2023-04-24T05:05:57;7.72;;;6.50;;
22240;SDS011;11289;52.524;13.694;2023-04-24T05:08:23;9.55;;;6.32;;
22240;SDS011;11289;52.524;13.694;2023-04-24T05:10:49;7.90;;;6.95;;
22240;SDS011;11289;52.524;13.694;2023-04-24T05:13:15;7.18;;;6.45;;
22240;SDS011;11289;52.524;13.694;2023-04-24T05:15:41;8.55;;;7.65;;
22240;SDS011;11289;52.524;13.694;2023-04-24T05:18:07;7.25;;;5.70;;
22240;SDS011;11289;52.524;13.694;2023-04-24T05:20:32;7.60;;;6.43;;
22240;SDS011;11289;52.524;13.694;2023-04-24T05:22:58;6.82;;;6.00;;
22240;SDS011;11289;52.524;13.694;2023-04-24T05:25:24;7.07;;;5.90;;
22240;SDS011;11289;52.524;13.694;2023-04-24T05:27:50;6.97;;;6.10;;
22240;SDS011;11289;52.524;13.694;2023-04-24T05:30:16;7.85;;;5.28;;
22240;SDS011;11289;52.524;13.694;2023-04-24T05:32:42;5.95;;;5.35;;
22240;SDS011;11289;52.524;13.694;2023-04-24T05:35:08;7.95;;;6.07;;
22240;SDS011;11289;52.524;13.694;2023-04-24T05:37:34;6.93;;;5.90;;
22240;SDS011;11289;52.524;13.694;2023-04-24T05:40:00;8.48;;;5.95;;
22240;SDS011;11289;52.524;13.694;2023-04-24T05:42:26;6.47;;;5.13;;
22240;SDS011;11289;52.524;13.694;2023-04-24T05:44:52;6.20;;;5.03;;
22240;SDS011;11289;52.524;13.694;2023-04-24T05:47:20;6.57;;;5.32;;
22240;SDS011;11289;52.524;13.694;2023-04-24T05:49:47;5.75;;;5.07;;
22240;SDS011;11289;52.524;13.694;2023-04-24T05:52:13;7.10;;;4.82;;
22240;SDS011;11289;52.524;13.694;2023-04-24T05:54:39;4.80;;;4.30;;
22240;SDS011;11289;52.524;13.694;2023-04-24T05:57:05;6.25;;;4.60;;
22240;SDS011;11289;52.524;13.694;2023-04-24T05:59:33;5.55;;;4.38;;
22240;SDS011;11289;52.524;13.694;2023-04-24T06:02:02;5.45;;;4.28;;
22240;SDS011;11289;52.524;13.694;2023-04-24T06:04:28;4.68;;;4.15;;
22240;SDS011;11289;52.524;13.694;2023-04-24T06:06:54;5.55;;;4.60;;
22240;SDS011;11289;52.524;13.694;2023-04-24T06:09:22;3.95;;;3.25;;
22240;SDS011;11289;52.524;13.694;2023-04-24T06:11:48;5.32;;;3.53;;
22240;SDS011;11289;52.524;13.694;2023-04-24T06:14:15;4.07;;;3.38;;
22240;SDS011;11289;52.524;13.694;2023-04-24T06:16:41;3.70;;;3.25;;
22240;SDS011;11289;52.524;13.694;2023-04-24T06:19:07;4.20;;;3.67;;
22240;SDS011;11289;52.524;13.694;2023-04-24T06:21:33;4.25;;;3.47;;
22240;SDS011;11289;52.524;13.694;2023-04-24T06:23:59;4.25;;;3.17;;
22240;SDS011;11289;52.524;13.694;2023-04-24T06:26:26;3.15;;;2.60;;
22240;SDS011;11289;52.524;13.694;2023-04-24T06:28:52;3.72;;;2.33;;
22240;SDS011;11289;52.524;13.694;2023-04-24T06:31:19;3.47;;;2.83;;
22240;SDS011;11289;52.524;13.694;2023-04-24T06:33:45;3.03;;;2.22;;
22240;SDS011;11289;52.524;13.694;2023-04-24T06:36:12;2.97;;;2.20;;
22240;SDS011;11289;52.524;13.694;2023-04-24T06:38:38;3.17;;;1.60;;
22240;SDS011;11289;52.524;13.694;2023-04-24T06:41:04;3.72;;;1.75;;
22240;SDS011;11289;52.524;13.694;2023-04-24T06:43:33;2.92;;;2.17;;
22240;SDS011;11289;52.524;13.694;2023-04-24T06:45:59;3.05;;;2.15;;
22240;SDS011;11289;52.524;13.694;2023-04-24T06:48:25;2.55;;;1.80;;
22240;SDS011;11289;52.524;13.694;2023-04-24T06:50:52;2.17;;;1.88;;
22240;SDS011;11289;52.524;13.694;2023-04-24T06:53:18;2.50;;;1.70;;
22240;SDS011;11289;52.524;13.694;2023-04-24T06:55:44;2.97;;;1.90;;
22240;SDS011;11289;52.524;13.694;2023-04-24T06:58:13;3.00;;;1.73;;
22240;SDS011;11289;52.524;13.694;2023-04-24T07:00:39;3.55;;;1.88;;
22240;SDS011;11289;52.524;13.694;2023-04-24T07:03:05;4.82;;;1.83;;
22240;SDS011;11289;52.524;13.694;2023-04-24T07:05:31;2.42;;;1.80;;
22240;SDS011;11289;52.524;13.694;2023-04-24T07:07:59;6.57;;;2.58;;
22240;SDS011;11289;52.524;13.694;2023-04-24T07:10:25;3.08;;;1.70;;
22240;SDS011;11289;52.524;13.694;2023-04-24T07:12:54;2.60;;;1.60;;
22240;SDS011;11289;52.524;13.694;2023-04-24T07:15:22;3.03;;;1.42;;
22240;SDS011;11289;52.524;13.694;2023-04-24T07:17:49;2.22;;;1.60;;
22240;SDS011;11289;52.524;13.694;2023-04-24T07:20:15;3.35;;;1.30;;
22240;SDS011;11289;52.524;13.694;2023-04-24T07:22:41;3.00;;;1.85;;
22240;SDS011;11289;52.524;13.694;2023-04-24T07:25:07;2.67;;;1.05;;
22240;SDS011;11289;52.524;13.694;2023-04-24T07:27:34;3.63;;;1.60;;
22240;SDS011;11289;52.524;13.694;2023-04-24T07:30:02;2.53;;;1.17;;
22240;SDS011;11289;52.524;13.694;2023-04-24T07:32:30;3.05;;;1.00;;
22240;SDS011;11289;52.524;13.694;2023-04-24T07:34:56;4.97;;;1.20;;
22240;SDS011;11289;52.524;13.694;2023-04-24T07:37:22;1.73;;;1.00;;
22240;SDS011;11289;52.524;13.694;2023-04-24T07:39:49;2.08;;;1.30;;
22240;SDS011;11289;52.524;13.694;2023-04-24T07:42:15;2.33;;;0.90;;
22240;SDS011;11289;52.524;13.694;2023-04-24T07:44:41;1.73;;;1.00;;
22240;SDS011;11289;52.524;13.694;2023-04-24T07:47:07;1.00;;;0.90;;
22240;SDS011;11289;52.524;13.694;2023-04-24T07:49:33;2.70;;;1.00;;
22240;SDS011;11289;52.524;13.694;2023-04-24T07:52:00;1.63;;;0.80;;
22240;SDS011;11289;52.524;13.694;2023-04-24T07:54:28;2.95;;;0.90;;
22240;SDS011;11289;52.524;13.694;2023-04-24T07:56:54;2.33;;;1.25;;
22240;SDS011;11289;52.524;13.694;2023-04-24T07:59:20;1.65;;;0.90;;
22240;SDS011;11289;52.524;13.694;2023-04-24T08:01:46;2.33;;;0.82;;
22240;SDS011;11289;52.524;13.694;2023-04-24T08:04:12;1.17;;;1.00;;
22240;SDS011;11289;52.524;13.694;2023-04-24T08:06:38;2.10;;;1.00;;
22240;SDS011;11289;52.524;13.694;2023-04-24T08:09:04;2.08;;;1.00;;
22240;SDS011;11289;52.524;13.694;2023-04-24T08:11:30;2.53;;;1.10;;
22240;SDS011;11289;52.524;13.694;2023-04-24T08:13:57;1.55;;;1.10;;
22240;SDS011;11289;52.524;13.694;2023-04-24T08:16:23;0.82;;;0.80;;
22240;SDS011;11289;52.524;13.694;2023-04-24T08:18:49;1.50;;;1.27;;
22240;SDS011;11289;52.524;13.694;2023-04-24T08:21:16;2.20;;;0.90;;
22240;SDS011;11289;52.524;13.694;2023-04-24T08:23:42;2.40;;;0.93;;
22240;SDS011;11289;52.524;13.694;2023-04-24T08:26:09;1.15;;;0.80;;
22240;SDS011;11289;52.524;13.694;2023-04-24T08:28:36;2.08;;;0.60;;
22240;SDS011;11289;52.524;13.694;2023-04-24T08:31:02;2.13;;;0.70;;
22240;SDS011;11289;52.524;13.694;2023-04-24T08:33:28;0.93;;;0.60;;
22240;SDS011;11289;52.524;13.694;2023-04-24T08:36:03;1.17;;;0.70;;
22240;SDS011;11289;52.524;13.694;2023-04-24T08:38:30;1.10;;;0.70;;
22240;SDS011;11289;52.524;13.694;2023-04-24T08:40:57;0.93;;;0.82;;
22240;SDS011;11289;52.524;13.694;2023-04-24T08:43:25;1.13;;;0.60;;
22240;SDS011;11289;52.524;13.694;2023-04-24T08:45:51;2.75;;;0.77;;
22240;SDS011;11289;52.524;13.694;2023-04-24T08:48:18;1.10;;;0.80;;
22240;SDS011;11289;52.524;13.694;2023-04-24T08:50:44;1.90;;;0.80;;
22240;SDS011;11289;52.524;13.694;2023-04-24T08:53:10;2.55;;;0.80;;
22240;SDS011;11289;52.524;13.694;2023-04-24T08:55:37;0.88;;;0.70;;
22240;SDS011;11289;52.524;13.694;2023-04-24T08:58:04;1.77;;;1.00;;
22240;SDS011;11289;52.524;13.694;2023-04-24T09:00:30;1.10;;;0.70;;
22240;SDS011;11289;52.524;13.694;2023-04-24T09:02:57;0.82;;;0.70;;
22240;SDS011;11289;52.524;13.694;2023-04-24T09:05:23;0.77;;;0.70;;
22240;SDS011;11289;52.524;13.694;2023-04-24T09:07:49;1.33;;;0.70;;
22240;SDS011;11289;52.524;13.694;2023-04-24T09:10:24;1.35;;;0.75;;
22240;SDS011;11289;52.524;13.694;2023-04-24T09:12:51;3.03;;;0.93;;
22240;SDS011;11289;52.524;13.694;2023-04-24T09:15:20;0.93;;;0.80;;
22240;SDS011;11289;52.524;13.694;2023-04-24T09:17:47;2.17;;;0.70;;
22240;SDS011;11289;52.524;13.694;2023-04-24T09:20:13;1.48;;;0.80;;
22240;SDS011;11289;52.524;13.694;2023-04-24T09:22:39;0.77;;;0.50;;
22240;SDS011;11289;52.524;13.694;2023-04-24T09:25:06;2.53;;;0.80;;
22240;SDS011;11289;52.524;13.694;2023-04-24T09:27:33;2.40;;;0.73;;
22240;SDS011;11289;52.524;13.694;2023-04-24T09:30:01;0.75;;;0.60;;
22240;SDS011;11289;52.524;13.694;2023-04-24T09:32:28;1.13;;;0.55;;
22240;SDS011;11289;52.524;13.694;2023-04-24T09:35:08;0.60;;;0.50;;
22240;SDS011;11289;52.524;13.694;2023-04-24T09:37:40;0.80;;;0.60;;
22240;SDS011;11289;52.524;13.694;2023-04-24T09:40:12;0.90;;;0.80;;
22240;SDS011;11289;52.524;13.694;2023-04-24T09:43:01;2.65;;;0.80;;
22240;SDS011;11289;52.524;13.694;2023-04-24T09:45:31;4.15;;;0.80;;
22240;SDS011;11289;52.524;13.694;2023-04-24T09:48:01;0.47;;;0.40;;
22240;SDS011;11289;52.524;13.694;2023-04-24T09:50:29;0.55;;;0.43;;
22240;SDS011;11289;52.524;13.694;2023-04-24T09:52:58;0.93;;;0.70;;
22240;SDS011;11289;52.524;13.694;2023-04-24T09:55:24;0.70;;;0.60;;
22240;SDS011;11289;52.524;13.694;2023-04-24T09:57:55;0.80;;;0.73;;
22240;SDS011;11289;52.524;13.694;2023-04-24T10:00:26;1.45;;;0.82;;
22240;SDS011;11289;52.524;13.694;2023-04-24T10:02:54;0.85;;;0.60;;
22240;SDS011;11289;52.524;13.694;2023-04-24T10:05:27;0.77;;;0.77;;
22240;SDS011;11289;52.524;13.694;2023-04-24T10:08:12;1.58;;;0.70;;
22240;SDS011;11289;52.524;13.694;2023-04-24T10:10:44;1.40;;;0.60;;
22240;SDS011;11289;52.524;13.694;2023-04-24T10:13:12;0.80;;;0.80;;
22240;SDS011;11289;52.524;13.694;2023-04-24T10:15:39;1.42;;;0.60;;
22240;SDS011;11289;52.524;13.694;2023-04-24T10:18:08;1.33;;;0.90;;
22240;SDS011;11289;52.524;13.694;2023-04-24T10:20:36;1.00;;;0.45;;
22240;SDS011;11289;52.524;13.694;2023-04-24T10:23:03;2.35;;;0.45;;
22240;SDS011;11289;52.524;13.694;2023-04-24T10:25:30;1.08;;;0.50;;
22240;SDS011;11289;52.524;13.694;2023-04-24T10:28:00;0.90;;;0.43;;
22240;SDS011;11289;52.524;13.694;2023-04-24T10:30:28;1.00;;;0.80;;
22240;SDS011;11289;52.524;13.694;2023-04-24T10:33:05;1.52;;;0.60;;
22240;SDS011;11289;52.524;13.694;2023-04-24T10:35:41;2.22;;;0.70;;
22240;SDS011;11289;52.524;13.694;2023-04-24T10:38:13;1.65;;;0.77;;
22240;SDS011;11289;52.524;13.694;2023-04-24T10:40:41;0.93;;;0.70;;
22240;SDS011;11289;52.524;13.694;2023-04-24T10:43:08;0.60;;;0.60;;
22240;SDS011;11289;52.524;13.694;2023-04-24T10:45:37;2.05;;;0.80;;
22240;SDS011;11289;52.524;13.694;2023-04-24T10:48:04;0.95;;;0.60;;
22240;SDS011;11289;52.524;13.694;2023-04-24T10:50:46;3.03;;;0.88;;
22240;SDS011;11289;52.524;13.694;2023-04-24T10:53:19;2.10;;;0.83;;
22240;SDS011;11289;52.524;13.694;2023-04-24T10:55:50;1.65;;;0.80;;
22240;SDS011;11289;52.524;13.694;2023-04-24T10:58:24;1.58;;;0.73;;
22240;SDS011;11289;52.524;13.694;2023-04-24T11:01:00;2.97;;;0.80;;
22240;SDS011;11289;52.524;13.694;2023-04-24T11:03:30;2.67;;;0.80;;
22240;SDS011;11289;52.524;13.694;2023-04-24T11:05:59;2.72;;;0.70;;
22240;SDS011;11289;52.524;13.694;2023-04-24T11:08:31;2.67;;;0.80;;
22240;SDS011;11289;52.524;13.694;2023-04-24T11:11:11;1.00;;;0.70;;
22240;SDS011;11289;52.524;13.694;2023-04-24T11:16:21;2.20;;;0.70;;
22240;SDS011;11289;52.524;13.694;2023-04-24T11:18:51;1.50;;;0.90;;
22240;SDS011;11289;52.524;13.694;2023-04-24T11:21:20;1.58;;;0.50;;
22240;SDS011;11289;52.524;13.694;2023-04-24T11:23:47;4.10;;;0.80;;
22240;SDS011;11289;52.524;13.694;2023-04-24T11:26:17;1.27;;;0.70;;
22240;SDS011;11289;52.524;13.694;2023-04-24T11:28:47;1.00;;;0.80;;
22240;SDS011;11289;52.524;13.694;2023-04-24T11:32:00;2.40;;;0.70;;
22240;SDS011;11289;52.524;13.694;2023-04-24T11:34:11;2.50;;;0.80;;
22240;SDS011;11289;52.524;13.694;2023-04-24T11:36:40;0.50;;;0.50;;
22240;SDS011;11289;52.524;13.694;2023-04-24T11:39:08;1.50;;;0.65;;
22240;SDS011;11289;52.524;13.694;2023-04-24T11:41:35;2.75;;;1.05;;
22240;SDS011;11289;52.524;13.694;2023-04-24T11:44:02;1.10;;;0.60;;
22240;SDS011;11289;52.524;13.694;2023-04-24T11:46:31;1.17;;;0.52;;
22240;SDS011;11289;52.524;13.694;2023-04-24T11:48:57;0.63;;;0.63;;
22240;SDS011;11289;52.524;13.694;2023-04-24T11:51:25;2.00;;;0.60;;
22240;SDS011;11289;52.524;13.694;2023-04-24T11:53:53;3.65;;;0.60;;
22240;SDS011;11289;52.524;13.694;2023-04-24T11:56:23;1.73;;;0.80;;
22240;SDS011;11289;52.524;13.694;2023-04-24T11:58:53;2.33;;;1.00;;
22240;SDS011;11289;52.524;13.694;2023-04-24T12:01:21;1.98;;;1.00;;
22240;SDS011;11289;52.524;13.694;2023-04-24T12:03:49;1.10;;;0.93;;
22240;SDS011;11289;52.524;13.694;2023-04-24T12:06:16;1.65;;;1.00;;
22240;SDS011;11289;52.524;13.694;2023-04-24T12:08:45;2.30;;;0.85;;
22240;SDS011;11289;52.524;13.694;2023-04-24T12:11:14;0.70;;;0.70;;
22240;SDS011;11289;52.524;13.694;2023-04-24T12:13:41;1.20;;;0.60;;
22240;SDS011;11289;52.524;13.694;2023-04-24T12:16:07;1.23;;;0.80;;
22240;SDS011;11289;52.524;13.694;2023-04-24T12:18:33;0.77;;;0.77;;
22240;SDS011;11289;52.524;13.694;2023-04-24T12:21:15;0.82;;;0.80;;
22240;SDS011;11289;52.524;13.694;2023-04-24T12:23:45;2.25;;;1.08;;
22240;SDS011;11289;52.524;13.694;2023-04-24T12:26:12;1.92;;;0.90;;
22240;SDS011;11289;52.524;13.694;2023-04-24T12:28:41;2.35;;;0.80;;
22240;SDS011;11289;52.524;13.694;2023-04-24T12:31:07;1.40;;;1.27;;
22240;SDS011;11289;52.524;13.694;2023-04-24T12:33:34;1.70;;;1.20;;
22240;SDS011;11289;52.524;13.694;2023-04-24T12:36:01;1.67;;;1.02;;
22240;SDS011;11289;52.524;13.694;2023-04-24T12:38:28;2.30;;;1.40;;
22240;SDS011;11289;52.524;13.694;2023-04-24T12:41:02;0.90;;;0.90;;
22240;SDS011;11289;52.524;13.694;2023-04-24T12:43:29;1.15;;;0.98;;
22240;SDS011;11289;52.524;13.694;2023-04-24T12:45:55;1.38;;;0.90;;
22240;SDS011;11289;52.524;13.694;2023-04-24T12:48:22;1.98;;;0.90;;
22240;SDS011;11289;52.524;13.694;2023-04-24T12:50:48;1.25;;;0.80;;
22240;SDS011;11289;52.524;13.694;2023-04-24T12:53:14;0.60;;;0.60;;
22240;SDS011;11289;52.524;13.694;2023-04-24T12:55:41;2.15;;;0.80;;
22240;SDS011;11289;52.524;13.694;2023-04-24T12:58:07;0.60;;;0.60;;
22240;SDS011;11289;52.524;13.694;2023-04-24T13:00:33;2.05;;;0.80;;
22240;SDS011;11289;52.524;13.694;2023-04-24T13:02:59;1.33;;;0.70;;
22240;SDS011;11289;52.524;13.694;2023-04-24T13:05:26;1.55;;;0.80;;
22240;SDS011;11289;52.524;13.694;2023-04-24T13:07:52;1.50;;;0.70;;
22240;SDS011;11289;52.524;13.694;2023-04-24T13:10:18;0.90;;;0.70;;
22240;SDS011;11289;52.524;13.694;2023-04-24T13:12:44;5.45;;;0.80;;
22240;SDS011;11289;52.524;13.694;2023-04-24T13:15:11;0.63;;;0.50;;
22240;SDS011;11289;52.524;13.694;2023-04-24T13:17:37;0.85;;;0.77;;
22240;SDS011;11289;52.524;13.694;2023-04-24T13:20:04;1.13;;;0.93;;
22240;SDS011;11289;52.524;13.694;2023-04-24T13:22:30;1.20;;;0.82;;
22240;SDS011;11289;52.524;13.694;2023-04-24T13:24:56;2.42;;;1.05;;
22240;SDS011;11289;52.524;13.694;2023-04-24T13:27:22;0.88;;;0.70;;
22240;SDS011;11289;52.524;13.694;2023-04-24T13:29:48;1.73;;;0.80;;
22240;SDS011;11289;52.524;13.694;2023-04-24T13:32:15;0.70;;;0.68;;
22240;SDS011;11289;52.524;13.694;2023-04-24T13:34:40;0.75;;;0.60;;
22240;SDS011;11289;52.524;13.694;2023-04-24T13:37:06;2.38;;;0.70;;
22240;SDS011;11289;52.524;13.694;2023-04-24T13:39:33;0.85;;;0.60;;
22240;SDS011;11289;52.524;13.694;2023-04-24T13:41:59;0.77;;;0.60;;
22240;SDS011;11289;52.524;13.694;2023-04-24T13:44:26;1.83;;;0.50;;
22240;SDS011;11289;52.524;13.694;2023-04-24T13:46:53;1.60;;;0.88;;
22240;SDS011;11289;52.524;13.694;2023-04-24T13:49:22;2.67;;;0.60;;
22240;SDS011;11289;52.524;13.694;2023-04-24T13:51:50;1.90;;;1.00;;
22240;SDS011;11289;52.524;13.694;2023-04-24T13:54:17;1.02;;;0.70;;
22240;SDS011;11289;52.524;13.694;2023-04-24T13:56:42;1.50;;;0.55;;
22240;SDS011;11289;52.524;13.694;2023-04-24T13:59:08;2.00;;;0.65;;
22240;SDS011;11289;52.524;13.694;2023-04-24T14:01:35;0.57;;;0.57;;
22240;SDS011;11289;52.524;13.694;2023-04-24T14:04:01;0.70;;;0.68;;
22240;SDS011;11289;52.524;13.694;2023-04-24T14:06:27;1.50;;;0.68;;
22240;SDS011;11289;52.524;13.694;2023-04-24T14:08:53;1.65;;;0.65;;
22240;SDS011;11289;52.524;13.694;2023-04-24T14:11:19;4.50;;;1.10;;
22240;SDS011;11289;52.524;13.694;2023-04-24T14:13:45;29.55;;;5.10;;
22240;SDS011;11289;52.524;13.694;2023-04-24T14:16:12;6.05;;;1.23;;
22240;SDS011;11289;52.524;13.694;2023-04-24T14:18:38;27.65;;;2.60;;
22240;SDS011;11289;52.524;13.694;2023-04-24T14:21:04;42.75;;;4.43;;
22240;SDS011;11289;52.524;13.694;2023-04-24T14:23:30;21.48;;;1.67;;
22240;SDS011;11289;52.524;13.694;2023-04-24T14:25:57;7.35;;;0.98;;
22240;SDS011;11289;52.524;13.694;2023-04-24T14:32:32;1.08;;;0.82;;
22240;SDS011;11289;52.524;13.694;2023-04-24T14:47:34;1.48;;;0.60;;
22240;SDS011;11289;52.524;13.694;2023-04-24T14:50:33;1.13;;;0.80;;
22240;SDS011;11289;52.524;13.694;2023-04-24T14:53:05;0.60;;;0.60;;